Time;durP1;ratioP1;P1;durP2;ratioP2;P2;SDS_P1;SDS_P2;PMS_P1;PMS_P2;Temp;Humidity;BMP_temperature;BMP_pressure;BME280_temperature;BME280_humidity;BME280_pressure;Samples;Min_cycle;Max_cycle;Signal;HPM_P1;HPM_P2
2022/05/26 00:01:09;;;;;;;31.08;11.30;;;13.90;99.90;;;;;;5053225;28;20045;-63
2022/05/26 00:03:38;;;;;;;29.75;11.15;;;13.80;99.90;;;;;;5036988;28;20499;-63
2022/05/26 00:06:06;;;;;;;30.00;9.77;;;13.70;99.90;;;;;;5054893;28;20503;-65
2022/05/26 00:08:33;;;;;;;34.08;10.38;;;13.90;99.90;;;;;;5036898;28;20033;-63
2022/05/26 00:10:58;;;;;;;38.20;10.70;;;13.90;99.90;;;;;;5053375;28;20052;-64
2022/05/26 00:13:25;;;;;;;38.55;10.77;;;13.80;99.90;;;;;;5053255;28;20041;-64
2022/05/26 00:15:51;;;;;;;32.35;11.07;;;14.00;99.90;;;;;;5036674;28;20506;-63
2022/05/26 00:18:17;;;;;;;34.78;10.50;;;;;;;;;;5053530;28;20045;-64
2022/05/26 00:20:43;;;;;;;32.67;10.00;;;14.00;99.90;;;;;;5054674;28;20084;-63
2022/05/26 00:23:08;;;;;;;29.88;11.10;;;14.00;99.90;;;;;;5036712;28;20490;-63
2022/05/26 00:25:34;;;;;;;32.70;9.50;;;13.90;99.90;;;;;;5052914;28;20037;-63
2022/05/26 00:28:00;;;;;;;38.75;10.13;;;13.90;99.90;;;;;;5052762;28;20045;-64
2022/05/26 00:30:26;;;;;;;32.25;9.82;;;14.00;99.90;;;;;;5052825;28;20102;-65
2022/05/26 00:32:51;;;;;;;34.95;8.75;;;14.00;99.90;;;;;;5052921;28;20045;-64
2022/05/26 00:35:17;;;;;;;39.70;9.48;;;14.20;99.90;;;;;;5054448;28;20033;-63
2022/05/26 00:37:43;;;;;;;35.78;9.65;;;14.10;99.90;;;;;;5053036;28;20049;-64
2022/05/26 00:40:11;;;;;;;37.33;9.82;;;14.00;99.90;;;;;;5052708;28;20123;-64
2022/05/26 00:42:37;;;;;;;27.02;7.53;;;14.00;99.90;;;;;;5052471;28;20037;-63
2022/05/26 00:45:04;;;;;;;32.10;8.98;;;14.20;99.90;;;;;;5053889;28;20098;-64
2022/05/26 00:47:34;;;;;;;30.77;9.75;;;14.00;99.90;;;;;;5053746;28;20407;-63
2022/05/26 00:50:05;;;;;;;33.58;9.07;;;14.10;99.90;;;;;;5054043;28;20079;-63
2022/05/26 00:52:45;;;;;;;32.72;10.10;;;14.00;99.90;;;;;;5052672;28;20045;-64
2022/05/26 00:55:23;;;;;;;33.83;9.88;;;14.20;99.90;;;;;;5035901;28;20099;-64
2022/05/26 00:57:56;;;;;;;41.10;10.20;;;14.10;99.90;;;;;;5053883;28;20033;-63
2022/05/26 01:00:26;;;;;;;40.70;11.20;;;14.30;99.90;;;;;;5052538;28;20502;-64
2022/05/26 01:03:08;;;;;;;42.67;11.43;;;14.00;99.90;;;;;;5034385;28;20113;-63
2022/05/26 01:05:41;;;;;;;35.38;9.55;;;14.10;99.90;;;;;;5032274;28;20049;-63
2022/05/26 01:08:14;;;;;;;35.08;10.57;;;14.00;99.90;;;;;;5049150;28;20050;-63
2022/05/26 01:10:40;;;;;;;43.63;10.93;;;14.20;99.90;;;;;;5032357;28;20052;-63
2022/05/26 01:13:06;;;;;;;37.35;10.38;;;;;;;;;;5032513;28;20049;-64
2022/05/26 01:15:36;;;;;;;37.63;11.65;;;14.20;99.90;;;;;;5032183;28;20077;-63
2022/05/26 01:18:27;;;;;;;37.05;8.98;;;14.10;99.90;;;;;;5032370;28;20053;-63
2022/05/26 01:21:08;;;;;;;33.85;8.50;;;14.20;99.90;;;;;;5033623;28;20048;-64
2022/05/26 01:23:55;;;;;;;37.80;8.93;;;14.20;99.90;;;;;;5032515;28;20087;-63
2022/05/26 01:26:43;;;;;;;39.78;10.07;;;14.00;99.90;;;;;;5033290;28;20052;-64
2022/05/26 01:29:40;;;;;;;34.00;8.43;;;14.10;99.90;;;;;;5033384;28;20288;-63
2022/05/26 01:32:41;;;;;;;35.58;9.90;;;14.10;99.90;;;;;;5031954;28;20081;-65
2022/05/26 01:35:37;;;;;;;38.92;9.93;;;14.00;99.90;;;;;;4990503;28;20092;-64
2022/05/26 01:38:16;;;;;;;33.30;8.63;;;13.90;99.90;;;;;;5032014;28;20526;-64
2022/05/26 01:41:03;;;;;;;31.92;8.18;;;14.00;99.90;;;;;;5031490;28;20507;-65
2022/05/26 01:43:41;;;;;;;38.40;8.85;;;14.00;99.90;;;;;;5033064;28;20037;-64
2022/05/26 01:46:16;;;;;;;33.40;8.27;;;14.00;99.90;;;;;;5042815;28;20033;-63
2022/05/26 01:49:23;;;;;;;35.50;8.18;;;13.80;99.90;;;;;;5051816;28;20103;-64
2022/05/26 01:52:02;;;;;;;33.60;8.38;;;14.00;99.90;;;;;;4994645;28;20084;-64
2022/05/26 01:54:57;;;;;;;35.75;8.45;;;14.00;99.90;;;;;;5044291;28;20079;-63
2022/05/26 01:57:37;;;;;;;29.70;8.85;;;14.00;99.90;;;;;;5052327;28;20037;-64
2022/05/26 02:00:09;;;;;;;41.25;9.38;;;14.00;99.90;;;;;;5052526;28;20216;-64
2022/05/26 02:02:41;;;;;;;35.17;8.00;;;14.10;99.90;;;;;;5050922;28;20071;-64
2022/05/26 02:05:16;;;;;;;26.25;7.38;;;14.00;99.90;;;;;;5051134;28;20083;-63
2022/05/26 02:08:02;;;;;;;31.88;9.20;;;14.00;99.90;;;;;;5051102;28;20076;-64
2022/05/26 02:10:39;;;;;;;35.95;9.07;;;14.10;99.90;;;;;;5052505;28;20147;-63
2022/05/26 02:13:11;;;;;;;36.47;9.32;;;14.10;99.90;;;;;;5051131;28;20052;-64
2022/05/26 02:15:39;;;;;;;38.65;8.23;;;14.00;99.90;;;;;;5052615;28;20037;-63
2022/05/26 02:18:15;;;;;;;33.40;8.15;;;14.00;99.90;;;;;;5052244;28;20041;-64
2022/05/26 02:20:56;;;;;;;32.88;9.05;;;13.90;99.90;;;;;;5052529;28;20075;-63
2022/05/26 02:23:45;;;;;;;31.20;8.05;;;14.00;99.90;;;;;;5052076;28;20081;-64
2022/05/26 02:26:13;;;;;;;39.03;9.15;;;14.10;99.90;;;;;;5052209;28;20072;-63
2022/05/26 02:31:28;;;;;;;31.90;8.10;;;14.10;99.90;;;;;;5052123;28;20080;-64
2022/05/26 02:33:59;;;;;;;32.38;6.90;;;14.00;99.90;;;;;;5034007;28;20792;-64
2022/05/26 02:36:29;;;;;;;35.38;7.45;;;13.90;99.90;;;;;;5052361;28;20053;-63
2022/05/26 02:38:55;;;;;;;33.75;8.02;;;;;;;;;;5050970;28;20041;-63
2022/05/26 02:41:23;;;;;;;41.40;8.77;;;14.00;99.90;;;;;;5052019;28;20549;-65
2022/05/26 02:43:50;;;;;;;39.40;7.80;;;13.90;99.90;;;;;;5051911;28;20479;-63
2022/05/26 02:46:37;;;;;;;35.30;7.55;;;14.00;99.90;;;;;;5051605;28;20104;-64
2022/05/26 02:49:27;;;;;;;31.45;6.82;;;14.00;99.90;;;;;;5050781;28;20072;-63
2022/05/26 02:52:19;;;;;;;33.05;6.88;;;14.00;99.90;;;;;;5050618;28;20037;-64
2022/05/26 02:55:02;;;;;;;31.83;6.55;;;13.90;99.90;;;;;;5050730;28;20048;-64
2022/05/26 02:58:06;;;;;;;34.15;7.85;;;14.00;99.90;;;;;;5051807;28;20045;-63
2022/05/26 03:00:52;;;;;;;30.02;7.07;;;13.90;99.90;;;;;;5050960;28;20448;-63
2022/05/26 03:03:28;;;;;;;23.77;7.10;;;14.00;99.90;;;;;;5050846;28;20037;-63
2022/05/26 03:06:22;;;;;;;38.13;7.70;;;14.00;99.90;;;;;;5050283;28;20048;-64
2022/05/26 03:08:48;;;;;;;30.25;7.50;;;;;;;;;;5050677;28;20077;-64
2022/05/26 03:11:19;;;;;;;28.95;7.63;;;14.10;99.90;;;;;;5050421;28;20041;-64
2022/05/26 03:13:44;;;;;;;35.90;7.55;;;13.90;99.90;;;;;;5051693;28;20095;-63
2022/05/26 03:16:10;;;;;;;36.17;8.80;;;13.90;99.90;;;;;;5051822;28;20080;-64
2022/05/26 03:18:36;;;;;;;27.63;8.30;;;14.00;99.90;;;;;;5054386;28;20044;-64
2022/05/26 03:21:04;;;;;;;47.25;8.55;;;13.90;99.90;;;;;;5054367;28;20053;-63
2022/05/26 03:23:30;;;;;;;31.77;6.82;;;13.90;99.90;;;;;;5054569;28;20040;-63
2022/05/26 03:25:58;;;;;;;29.83;7.40;;;14.00;99.90;;;;;;5037541;28;20037;-64
2022/05/26 03:28:25;;;;;;;29.13;6.00;;;13.80;99.90;;;;;;5054439;28;20044;-63
2022/05/26 03:30:50;;;;;;;31.20;6.82;;;;;;;;;;5054094;28;20045;-64
2022/05/26 03:33:16;;;;;;;26.55;6.50;;;13.90;99.90;;;;;;5055359;28;20403;-64
2022/05/26 03:41:11;;;;;;;27.00;5.10;;;13.70;99.90;;;;;;5055447;28;20049;-63
2022/05/26 03:43:43;;;;;;;21.85;5.80;;;13.70;99.90;;;;;;5055033;28;20044;-63
2022/05/26 03:46:09;;;;;;;24.20;5.28;;;14.10;99.90;;;;;;5054045;28;20038;-63
2022/05/26 03:48:35;;;;;;;25.10;5.05;;;13.70;99.90;;;;;;5055416;28;20048;-63
2022/05/26 03:51:02;;;;;;;26.13;5.47;;;13.60;99.90;;;;;;5053969;28;20071;-65
2022/05/26 03:53:27;;;;;;;20.02;5.00;;;13.60;99.90;;;;;;5054899;28;20102;-63
2022/05/26 03:55:53;;;;;;;17.98;4.53;;;13.70;99.90;;;;;;5053999;28;20395;-63
2022/05/26 03:58:19;;;;;;;21.42;4.68;;;13.60;99.90;;;;;;5053673;28;20037;-63
2022/05/26 04:00:45;;;;;;;21.52;4.22;;;;;;;;;;5036886;28;20128;-64
2022/05/26 04:03:11;;;;;;;16.42;3.63;;;;;;;;;;5054044;28;20029;-64
2022/05/26 04:05:37;;;;;;;14.23;3.50;;;13.60;99.90;;;;;;5053290;28;20132;-64
2022/05/26 04:08:02;;;;;;;19.25;3.40;;;13.60;99.90;;;;;;5053722;28;20505;-63
2022/05/26 04:10:28;;;;;;;18.50;3.67;;;13.60;99.90;;;;;;5036649;28;20120;-63
2022/05/26 04:12:55;;;;;;;14.85;3.60;;;13.50;99.90;;;;;;5053115;28;20388;-64
2022/05/26 04:15:21;;;;;;;12.75;3.28;;;13.60;99.90;;;;;;5053664;28;20048;-64
2022/05/26 04:17:47;;;;;;;11.82;3.08;;;13.40;99.90;;;;;;5054753;28;20048;-64
2022/05/26 04:20:16;;;;;;;15.32;2.90;;;13.60;99.90;;;;;;5055113;28;20040;-64
2022/05/26 04:22:42;;;;;;;15.57;2.67;;;13.40;99.90;;;;;;5052964;28;20056;-63
2022/05/26 04:25:08;;;;;;;11.77;2.78;;;13.40;99.90;;;;;;5047557;28;20033;-64
2022/05/26 04:27:34;;;;;;;15.80;2.95;;;13.40;99.90;;;;;;5042988;28;20072;-65
2022/05/26 04:30:03;;;;;;;10.30;2.20;;;13.40;99.90;;;;;;5036939;28;20048;-65
2022/05/26 04:32:29;;;;;;;13.50;1.98;;;13.50;99.90;;;;;;5033550;28;20049;-65
2022/05/26 04:34:54;;;;;;;14.70;2.58;;;13.50;99.90;;;;;;5033036;28;20041;-65
2022/05/26 04:37:23;;;;;;;9.75;1.80;;;13.50;99.90;;;;;;5044121;28;20574;-62
2022/05/26 04:39:50;;;;;;;7.63;1.77;;;13.50;99.90;;;;;;5053804;28;20414;-63
2022/05/26 04:42:17;;;;;;;8.45;1.90;;;13.70;99.90;;;;;;5053551;28;20090;-63
2022/05/26 04:44:44;;;;;;;9.52;1.92;;;13.90;99.90;;;;;;5054048;28;20094;-62
2022/05/26 04:47:11;;;;;;;6.47;1.60;;;13.80;99.90;;;;;;5054112;28;20032;-62
2022/05/26 04:49:37;;;;;;;9.02;1.60;;;14.20;99.90;;;;;;5053466;28;20072;-63
2022/05/26 04:52:09;;;;;;;9.80;1.83;;;14.20;99.90;;;;;;5053842;28;20040;-62
2022/05/26 04:54:38;;;;;;;3.88;1.45;;;14.20;99.90;;;;;;5048940;28;20048;-64
2022/05/26 04:57:05;;;;;;;8.63;1.27;;;14.30;99.90;;;;;;5053091;28;20167;-63
2022/05/26 04:59:32;;;;;;;4.55;1.35;;;14.40;99.90;;;;;;5053468;28;20037;-62
2022/05/26 05:01:58;;;;;;;7.05;1.30;;;15.30;99.90;;;;;;5054072;28;20047;-63
2022/05/26 05:04:25;;;;;;;4.60;1.10;;;15.20;99.90;;;;;;5053871;28;20469;-62
2022/05/26 05:06:54;;;;;;;5.85;1.42;;;16.20;99.90;;;;;;5053464;28;20053;-63
2022/05/26 05:09:21;;;;;;;8.18;2.08;;;16.30;99.90;;;;;;5052535;28;20119;-62
2022/05/26 05:11:48;;;;;;;5.78;1.42;;;16.50;99.90;;;;;;5053738;28;20495;-62
2022/05/26 05:14:14;;;;;;;4.70;1.35;;;16.60;99.90;;;;;;5052555;28;20041;-62
2022/05/26 05:16:45;;;;;;;7.32;0.80;;;16.60;99.90;;;;;;5052492;28;20510;-62
2022/05/26 05:19:14;;;;;;;9.10;0.95;;;16.70;99.90;;;;;;5053642;28;20051;-62
2022/05/26 05:21:50;;;;;;;8.50;1.13;;;16.80;99.90;;;;;;5043361;28;20040;-62
2022/05/26 05:24:21;;;;;;;4.47;1.08;;;16.10;99.90;;;;;;5032368;28;20037;-62
2022/05/26 05:26:50;;;;;;;9.45;1.23;;;16.30;99.90;;;;;;5047479;28;20515;-64
2022/05/26 05:29:19;;;;;;;5.75;0.80;;;16.10;99.90;;;;;;5030244;28;20038;-65
2022/05/26 05:31:49;;;;;;;7.20;1.10;;;16.10;99.90;;;;;;5030635;28;20041;-65
2022/05/26 05:34:20;;;;;;;7.43;0.85;;;15.60;99.90;;;;;;5047582;28;20041;-64
2022/05/26 05:36:46;;;;;;;6.88;1.00;;;15.80;99.90;;;;;;5050764;28;20040;-64
2022/05/26 05:39:12;;;;;;;4.85;0.90;;;15.70;99.90;;;;;;5047867;28;20114;-63
2022/05/26 05:41:37;;;;;;;4.32;0.98;;;15.60;99.90;;;;;;5045578;28;20047;-63
2022/05/26 05:44:04;;;;;;;5.55;1.08;;;15.60;99.90;;;;;;5044761;28;20040;-63
2022/05/26 05:46:53;;;;;;;5.35;0.98;;;15.30;99.90;;;;;;5030139;28;20115;-66
2022/05/26 05:49:19;;;;;;;5.28;0.88;;;;;;;;;;5023637;28;20461;-64
2022/05/26 05:51:45;;;;;;;7.07;1.27;;;;;;;;;;5022547;28;20052;-65
2022/05/26 05:54:11;;;;;;;3.42;1.05;;;15.20;99.90;;;;;;5024312;28;20037;-63
2022/05/26 05:56:37;;;;;;;2.80;0.90;;;15.10;99.90;;;;;;5023960;28;20530;-66
2022/05/26 05:59:03;;;;;;;5.57;1.60;;;;;;;;;;5023591;28;20050;-64
2022/05/26 06:01:29;;;;;;;6.43;1.50;;;;;;;;;;5024010;28;20060;-66
2022/05/26 06:03:55;;;;;;;5.22;1.00;;;15.00;99.90;;;;;;5023781;28;20124;-64
2022/05/26 06:06:21;;;;;;;8.27;1.42;;;;;;;;;;5024402;28;20589;-65
2022/05/26 06:08:46;;;;;;;4.43;0.80;;;15.20;99.90;;;;;;5024622;28;20056;-65
2022/05/26 06:11:12;;;;;;;8.82;1.80;;;15.20;99.90;;;;;;5006756;28;20056;-64
2022/05/26 06:13:37;;;;;;;8.73;1.00;;;15.30;99.90;;;;;;5028524;28;20045;-63
2022/05/26 06:16:03;;;;;;;9.15;1.73;;;15.20;99.90;;;;;;5027879;28;20056;-63
2022/05/26 06:18:29;;;;;;;3.85;0.65;;;15.30;99.90;;;;;;5026451;28;20038;-64
2022/05/26 06:21:03;;;;;;;8.10;1.52;;;15.20;99.90;;;;;;5034350;28;20223;-63
2022/05/26 06:23:28;;;;;;;6.38;0.98;;;15.30;99.90;;;;;;5043829;28;20048;-66
2022/05/26 06:25:54;;;;;;;6.70;0.93;;;;;;;;;;5043758;28;20041;-65
2022/05/26 06:31:05;;;;;;;7.55;1.27;;;;;;;;;;5042508;28;20056;-64
2022/05/26 06:38:59;;;;;;;3.73;1.03;;;15.10;99.90;;;;;;5040703;28;20053;-65
2022/05/26 06:44:10;;;;;;;5.32;1.13;;;;;;;;;;5040654;28;20136;-64
2022/05/26 06:46:36;;;;;;;5.15;1.20;;;;;;;;;;5041564;28;20033;-64
2022/05/26 06:49:01;;;;;;;6.25;0.95;;;15.30;99.90;;;;;;5042320;28;20390;-64
2022/05/26 06:51:29;;;;;;;8.70;1.00;;;15.40;99.90;;;;;;5044080;28;20043;-64
2022/05/26 06:53:55;;;;;;;7.68;0.98;;;;;;;;;;5043838;28;20557;-67
2022/05/26 06:56:21;;;;;;;7.55;1.40;;;15.40;99.90;;;;;;5035231;28;20037;-64
2022/05/26 06:58:46;;;;;;;6.20;1.10;;;15.40;99.90;;;;;;5033514;28;20051;-64
2022/05/26 07:01:14;;;;;;;8.65;2.15;;;15.50;99.90;;;;;;5037582;28;20041;-65
2022/05/26 07:03:40;;;;;;;6.22;1.13;;;15.50;99.90;;;;;;5034615;28;20077;-63
2022/05/26 07:06:14;;;;;;;6.38;1.40;;;15.50;99.90;;;;;;5028663;28;20136;-66
2022/05/26 07:08:40;;;;;;;8.57;1.10;;;;;;;;;;5027058;28;20037;-65
2022/05/26 07:11:06;;;;;;;5.97;2.35;;;15.60;99.90;;;;;;5024835;28;20084;-64
2022/05/26 07:13:31;;;;;;;2.28;0.80;;;;;;;;;;5025561;28;20140;-65
2022/05/26 07:15:57;;;;;;;7.43;1.63;;;;;;;;;;5029341;28;20052;-68
2022/05/26 07:18:23;;;;;;;6.53;1.00;;;;;;;;;;5046300;28;20051;-66
2022/05/26 07:20:49;;;;;;;2.92;0.75;;;;;;;;;;5045683;28;20081;-64
2022/05/26 07:23:15;;;;;;;4.10;0.77;;;;;;;;;;5044432;28;20414;-64
2022/05/26 07:25:42;;;;;;;7.88;1.90;;;15.70;99.90;;;;;;5044237;28;20091;-64
2022/05/26 07:28:08;;;;;;;7.07;0.88;;;;;;;;;;5045535;28;20033;-65
2022/05/26 07:30:34;;;;;;;6.50;1.00;;;;;;;;;;5027897;28;20056;-65
2022/05/26 07:33:00;;;;;;;6.70;1.00;;;;;;;;;;5046672;28;20102;-65
2022/05/26 07:35:27;;;;;;;5.20;0.90;;;;;;;;;;5047140;28;20037;-65
2022/05/26 07:43:21;;;;;;;6.35;1.45;;;16.10;99.90;;;;;;5046920;28;20152;-65
2022/05/26 07:45:50;;;;;;;10.48;1.27;;;16.10;99.90;;;;;;5046285;28;20041;-66
2022/05/26 07:48:16;;;;;;;5.18;0.80;;;;;;;;;;5025119;28;20128;-66
2022/05/26 07:50:42;;;;;;;3.97;0.90;;;16.40;99.90;;;;;;5026600;28;20511;-65
2022/05/26 07:53:08;;;;;;;6.00;1.00;;;16.40;99.90;;;;;;5024841;28;20057;-66
2022/05/26 07:55:34;;;;;;;5.00;0.70;;;16.40;99.90;;;;;;5034423;28;20041;-66
2022/05/26 07:57:59;;;;;;;7.68;1.00;;;16.40;99.90;;;;;;5046218;28;20056;-66
2022/05/26 08:00:25;;;;;;;5.43;0.80;;;16.30;99.90;;;;;;5046543;28;20169;-65
2022/05/26 08:02:51;;;;;;;6.47;0.77;;;16.40;99.90;;;;;;5047029;28;20128;-65
2022/05/26 08:05:17;;;;;;;6.00;2.05;;;16.30;99.90;;;;;;5046466;28;20109;-66
2022/05/26 08:07:43;;;;;;;2.35;0.80;;;16.30;99.90;;;;;;5046750;28;20464;-66
2022/05/26 08:10:10;;;;;;;4.60;0.90;;;16.30;99.90;;;;;;5047567;28;20056;-66
2022/05/26 08:12:36;;;;;;;4.68;0.80;;;16.50;99.90;;;;;;5046211;28;20060;-66
2022/05/26 08:15:02;;;;;;;7.03;1.00;;;16.30;99.90;;;;;;5045423;28;20041;-65
2022/05/26 08:17:27;;;;;;;7.13;1.10;;;16.40;99.90;;;;;;5046606;28;20044;-66
2022/05/26 08:19:53;;;;;;;5.78;0.88;;;;;;;;;;5044338;28;20052;-66
2022/05/26 08:22:19;;;;;;;4.55;0.95;;;;;;;;;;5044942;28;20036;-65
2022/05/26 08:24:53;;;;;;;2.63;0.82;;;16.50;99.90;;;;;;5043289;28;20048;-65
2022/05/26 08:27:19;;;;;;;2.80;0.80;;;16.50;99.90;;;;;;5025947;28;20041;-65
2022/05/26 08:29:45;;;;;;;8.55;1.13;;;16.50;99.90;;;;;;5029252;28;20057;-66
2022/05/26 08:32:11;;;;;;;7.95;0.80;;;16.50;99.90;;;;;;5028407;28;20048;-65
2022/05/26 08:34:37;;;;;;;2.53;0.75;;;;;;;;;;5037084;28;20033;-66
2022/05/26 08:37:03;;;;;;;3.95;0.63;;;16.30;99.90;;;;;;5028876;28;20049;-66
2022/05/26 08:39:31;;;;;;;1.75;0.52;;;16.60;99.90;;;;;;5045082;28;20041;-67
2022/05/26 08:41:57;;;;;;;6.30;0.88;;;16.70;99.90;;;;;;5046556;28;20029;-65
2022/05/26 08:44:31;;;;;;;2.33;1.00;;;16.80;99.90;;;;;;5044984;28;20502;-65
2022/05/26 08:47:18;;;;;;;5.13;0.93;;;16.90;99.90;;;;;;5046344;28;20037;-65
2022/05/26 08:49:51;;;;;;;6.57;0.88;;;16.80;99.90;;;;;;5037439;28;20471;-65
2022/05/26 08:52:27;;;;;;;5.43;0.93;;;17.00;99.90;;;;;;5040435;28;20045;-66
2022/05/26 08:55:18;;;;;;;6.22;1.20;;;17.20;99.90;;;;;;5045789;28;20048;-65
2022/05/26 08:58:00;;;;;;;5.03;0.70;;;17.30;99.90;;;;;;5044027;28;20044;-66
2022/05/26 09:00:26;;;;;;;5.90;0.98;;;17.20;99.90;;;;;;5040472;28;20043;-65
2022/05/26 09:02:55;;;;;;;3.47;0.70;;;17.60;99.90;;;;;;5035208;28;20079;-65
2022/05/26 09:05:22;;;;;;;6.15;0.98;;;17.60;99.90;;;;;;5036126;28;20112;-64
2022/05/26 09:13:38;;;;;;;4.03;0.60;;;17.60;99.90;;;;;;5045529;28;20048;-66
2022/05/26 09:16:06;;;;;;;4.90;0.90;;;17.60;99.90;;;;;;5043725;28;20048;-66
2022/05/26 09:18:32;;;;;;;2.83;0.70;;;18.00;99.90;;;;;;5044522;28;20053;-65
2022/05/26 09:21:22;;;;;;;4.30;0.88;;;18.10;99.90;;;;;;5043837;28;20617;-65
2022/05/26 09:23:48;;;;;;;5.43;0.70;;;18.00;99.90;;;;;;5045824;28;20093;-65
2022/05/26 09:26:20;;;;;;;2.72;0.52;;;18.20;99.90;;;;;;5045871;28;20123;-65
2022/05/26 09:28:51;;;;;;;4.68;0.90;;;18.20;99.90;;;;;;5044935;28;20084;-65
2022/05/26 09:31:34;;;;;;;5.45;0.75;;;18.00;99.90;;;;;;5045500;28;20090;-65
2022/05/26 09:34:19;;;;;;;3.20;0.80;;;18.10;99.90;;;;;;5044866;28;20055;-65
2022/05/26 09:36:50;;;;;;;2.08;0.60;;;17.80;99.90;;;;;;5044085;28;20450;-65
2022/05/26 09:39:25;;;;;;;4.10;0.90;;;17.60;99.90;;;;;;5045279;28;20124;-65
2022/05/26 09:41:53;;;;;;;5.03;0.70;;;17.80;99.90;;;;;;5041523;28;20048;-65
2022/05/26 09:44:22;;;;;;;5.82;0.80;;;18.20;99.90;;;;;;5041551;28;20395;-65
2022/05/26 09:46:50;;;;;;;2.35;0.50;;;18.10;99.90;;;;;;5045952;28;20152;-65
2022/05/26 09:49:16;;;;;;;2.88;0.98;;;18.20;99.90;;;;;;5047229;28;20402;-66
2022/05/26 09:51:45;;;;;;;3.60;0.88;;;18.10;99.90;;;;;;5042640;28;20052;-66
2022/05/26 09:54:30;;;;;;;2.97;0.50;;;18.20;99.90;;;;;;5047640;28;20033;-65
2022/05/26 09:56:56;;;;;;;5.93;0.52;;;18.60;99.90;;;;;;5032388;28;20072;-65
2022/05/26 09:59:34;;;;;;;3.00;0.60;;;18.80;99.90;;;;;;5048520;28;20064;-65
2022/05/26 10:02:34;;;;;;;5.03;0.73;;;18.80;99.90;;;;;;5049158;28;20490;-66
2022/05/26 10:05:25;;;;;;;3.05;0.50;;;18.60;99.90;;;;;;5029515;28;20050;-65
2022/05/26 10:08:13;;;;;;;6.40;1.00;;;18.60;99.90;;;;;;5048781;28;20053;-65
2022/05/26 10:11:11;;;;;;;4.60;0.93;;;18.60;99.90;;;;;;5045971;28;20052;-65
2022/05/26 10:13:36;;;;;;;3.85;0.80;;;18.10;99.90;;;;;;5035464;28;20072;-65
2022/05/26 10:16:14;;;;;;;5.38;1.63;;;18.20;99.90;;;;;;5033681;28;20045;-66
2022/05/26 10:18:54;;;;;;;5.63;0.98;;;17.80;99.90;;;;;;5048964;28;20044;-65
2022/05/26 10:21:44;;;;;;;4.07;1.08;;;18.20;99.90;;;;;;5055995;28;20056;-65
2022/05/26 10:24:43;;;;;;;4.90;1.60;;;17.90;99.90;;;;;;5047432;28;20136;-65
2022/05/26 10:27:23;;;;;;;4.00;0.70;;;18.00;99.90;;;;;;5047147;28;20056;-65
2022/05/26 10:30:28;;;;;;;7.50;1.15;;;18.10;99.90;;;;;;5047285;28;20052;-65
2022/05/26 10:33:35;;;;;;;2.57;0.70;;;17.90;99.90;;;;;;5049640;28;20049;-66
2022/05/26 10:36:03;;;;;;;5.07;1.00;;;17.90;99.90;;;;;;5052311;28;20045;-65
2022/05/26 10:38:30;;;;;;;7.15;1.65;;;17.40;99.90;;;;;;5049662;28;20045;-65
2022/05/26 10:41:21;;;;;;;4.85;1.83;;;17.60;99.90;;;;;;5056995;28;20134;-65
2022/05/26 10:44:07;;;;;;;5.65;1.35;;;17.80;99.90;;;;;;5046603;28;20053;-65
2022/05/26 10:46:38;;;;;;;4.28;1.60;;;17.90;99.90;;;;;;5033020;28;20092;-66
2022/05/26 10:49:31;;;;;;;5.53;1.55;;;18.00;99.90;;;;;;5046207;28;20048;-65
2022/05/26 10:52:12;;;;;;;3.85;1.40;;;18.20;99.90;;;;;;5019091;28;20045;-66
2022/05/26 10:54:46;;;;;;;3.47;1.60;;;18.20;99.90;;;;;;5042766;28;20129;-65
2022/05/26 10:57:27;;;;;;;5.22;1.75;;;18.30;99.90;;;;;;5036887;28;20860;-65
2022/05/26 11:00:14;;;;;;;6.85;1.50;;;18.30;99.90;;;;;;5027807;28;20380;-66
2022/05/26 11:03:05;;;;;;;3.00;1.30;;;18.40;99.90;;;;;;5040374;28;20040;-66
2022/05/26 11:05:38;;;;;;;5.35;1.67;;;18.60;99.90;;;;;;5044425;28;20091;-66
2022/05/26 11:08:27;;;;;;;4.18;1.58;;;18.50;99.90;;;;;;5039266;28;20053;-67
2022/05/26 11:10:58;;;;;;;7.22;2.63;;;18.30;99.90;;;;;;5056772;28;20056;-66
2022/05/26 11:13:42;;;;;;;8.55;2.13;;;18.50;99.90;;;;;;5041370;28;20545;-66
2022/05/26 11:19:43;;;;;;;5.97;2.03;;;18.50;99.90;;;;;;5038827;28;20510;-66
2022/05/26 11:22:12;;;;;;;5.95;1.95;;;18.60;99.90;;;;;;5038060;28;20131;-66
2022/05/26 11:24:39;;;;;;;5.38;2.00;;;18.20;99.90;;;;;;5037855;28;20455;-66
2022/05/26 11:27:13;;;;;;;5.18;1.40;;;18.50;99.90;;;;;;5038124;28;20041;-66
2022/05/26 11:29:40;;;;;;;9.63;2.53;;;18.50;99.90;;;;;;5039576;28;20588;-66
2022/05/26 11:38:28;;;;;;;9.10;1.67;;;18.10;99.90;;;;;;5038396;28;20139;-66
2022/05/26 11:41:00;;;;;;;5.43;1.98;;;18.00;99.90;;;;;;5041462;28;20041;-66
2022/05/26 11:43:30;;;;;;;6.70;1.40;;;17.50;99.90;;;;;;5039391;28;20086;-66
2022/05/26 11:45:58;;;;;;;8.25;1.70;;;18.00;99.90;;;;;;5032716;28;20568;-65
2022/05/26 11:48:30;;;;;;;5.07;1.20;;;18.00;99.90;;;;;;5018235;28;20183;-65
2022/05/26 11:51:03;;;;;;;4.43;1.23;;;18.10;99.90;;;;;;5043379;28;20052;-65
2022/05/26 11:53:35;;;;;;;6.50;1.45;;;18.00;99.90;;;;;;5050011;28;20210;-65
2022/05/26 11:56:43;;;;;;;3.35;1.65;;;18.00;99.90;;;;;;5029430;28;20037;-66
2022/05/26 11:59:17;;;;;;;10.55;1.60;;;18.10;99.90;;;;;;4960365;28;20484;-65
2022/05/26 12:01:46;;;;;;;6.32;1.52;;;17.70;99.90;;;;;;4961553;28;20213;-66
2022/05/26 12:04:35;;;;;;;6.32;1.30;;;18.00;99.90;;;;;;5009798;28;20048;-65
2022/05/26 12:07:20;;;;;;;8.70;2.13;;;18.20;99.90;;;;;;5032863;28;20303;-66
2022/05/26 12:09:51;;;;;;;;;;;18.50;99.90;;;;;;5023636;28;20052;-66
2022/05/26 12:12:16;;;;;;;8.32;1.90;;;18.60;99.90;;;;;;5038540;28;19920;-64
2022/05/26 12:14:50;;;;;;;5.10;1.40;;;18.30;99.90;;;;;;5043730;28;20158;-67
2022/05/26 12:17:36;;;;;;;13.55;2.45;;;18.40;99.90;;;;;;5037548;28;20284;-65
2022/05/26 12:20:25;;;;;;;7.60;2.25;;;18.40;99.90;;;;;;5033172;28;20044;-65
2022/05/26 12:22:50;;;;;;;6.50;1.05;;;18.60;99.90;;;;;;5034795;28;20049;-65
2022/05/26 12:25:30;;;;;;;7.07;1.60;;;18.60;99.90;;;;;;5034011;28;20045;-65
2022/05/26 12:28:13;;;;;;;6.80;1.55;;;18.50;99.90;;;;;;5035084;28;20144;-65
2022/05/26 12:30:43;;;;;;;8.38;1.77;;;18.30;99.90;;;;;;5032217;28;20056;-65
2022/05/26 12:33:18;;;;;;;6.10;1.38;;;18.60;99.90;;;;;;5038148;28;20044;-65
2022/05/26 12:36:07;;;;;;;;;;;18.50;99.90;;;;;;5039117;28;20053;-65
2022/05/26 12:38:51;;;;;;;7.70;1.52;;;18.40;99.90;;;;;;5032658;28;19950;-66
2022/05/26 12:41:49;;;;;;;3.17;1.02;;;18.30;99.90;;;;;;5038010;28;20044;-65
2022/05/26 12:45:01;;;;;;;8.55;1.20;;;18.50;99.90;;;;;;5029310;28;20041;-66
2022/05/26 12:47:46;;;;;;;8.77;1.42;;;18.70;99.90;;;;;;5038756;28;20708;-64
2022/05/26 12:50:19;;;;;;;10.60;1.58;;;18.40;99.90;;;;;;5042468;28;20047;-67
2022/05/26 12:52:57;;;;;;;6.65;1.60;;;18.50;99.90;;;;;;5048960;28;20049;-66
2022/05/26 12:55:31;;;;;;;5.30;1.40;;;18.70;99.90;;;;;;5051117;28;20060;-66
2022/05/26 12:58:12;;;;;;;10.95;1.60;;;18.60;99.90;;;;;;5052847;28;20388;-66
2022/05/26 13:00:44;;;;;;;6.30;1.20;;;18.70;99.90;;;;;;5052403;28;20552;-66
2022/05/26 13:03:20;;;;;;;11.98;1.95;;;18.80;99.90;;;;;;5053229;28;20067;-66
2022/05/26 13:05:53;;;;;;;8.05;1.42;;;18.70;99.90;;;;;;5062951;28;20133;-67
2022/05/26 13:08:24;;;;;;;7.45;1.38;;;18.70;99.90;;;;;;5047702;28;20048;-66
2022/05/26 13:10:54;;;;;;;6.97;1.40;;;18.80;99.90;;;;;;5043143;28;20049;-66
2022/05/26 13:13:41;;;;;;;6.20;1.00;;;18.90;99.90;;;;;;5031610;28;20075;-67
2022/05/26 13:16:33;;;;;;;2.20;0.90;;;18.70;99.90;;;;;;5031825;28;20091;-67
2022/05/26 13:19:14;;;;;;;7.43;1.33;;;18.50;99.90;;;;;;5035750;28;20128;-67
2022/05/26 13:21:42;;;;;;;7.22;1.80;;;18.80;99.90;;;;;;5036818;28;20044;-67
2022/05/26 13:24:48;;;;;;;6.75;1.73;;;18.90;99.90;;;;;;5043733;28;20036;-67
2022/05/26 13:27:14;;;;;;;;;;;18.70;99.90;;;;;;4992777;28;20057;-66
2022/05/26 13:29:45;;;;;;;7.05;1.38;;;18.90;99.90;;;;;;5052476;28;19920;-66
2022/05/26 13:35:01;;;;;;;8.75;1.27;;;18.60;99.90;;;;;;5061850;28;20041;-67
2022/05/26 13:37:31;;;;;;;4.38;1.10;;;18.70;99.90;;;;;;5050984;28;20029;-65
2022/05/26 13:40:10;;;;;;;4.53;1.20;;;18.70;99.90;;;;;;5055311;28;20579;-65
2022/05/26 13:42:38;;;;;;;5.68;1.58;;;18.60;99.90;;;;;;5055706;28;20036;-66
2022/05/26 13:45:07;;;;;;;5.93;1.20;;;18.60;99.90;;;;;;5067071;28;20044;-64
2022/05/26 13:47:33;;;;;;;8.15;1.55;;;18.40;99.90;;;;;;5055304;28;20048;-65
2022/05/26 13:50:06;;;;;;;8.95;1.75;;;18.50;99.90;;;;;;5071410;28;20446;-64
2022/05/26 13:52:34;;;;;;;4.22;1.38;;;18.40;99.90;;;;;;5064087;28;20045;-65
2022/05/26 13:55:06;;;;;;;5.25;1.75;;;18.30;99.90;;;;;;5053878;28;20529;-65
2022/05/26 13:57:45;;;;;;;7.25;1.63;;;18.40;99.90;;;;;;5061722;28;20044;-64
2022/05/26 14:00:14;;;;;;;10.07;1.90;;;18.50;99.90;;;;;;5049468;28;20041;-64
2022/05/26 14:02:55;;;;;;;7.75;2.00;;;18.40;99.90;;;;;;5050081;28;20059;-64
2022/05/26 14:05:24;;;;;;;14.38;2.30;;;18.20;99.90;;;;;;5051238;28;20102;-64